sensor_id;sensor_type;location;lat;lon;timestamp;P1;durP1;ratioP1;P2;durP2;ratioP2
50585;SDS011;36542;51.700;8.846;2023-05-24T00:00:27;18.70;;;6.17;;
50585;SDS011;36542;51.700;8.846;2023-05-24T00:02:53;22.07;;;6.50;;
50585;SDS011;36542;51.700;8.846;2023-05-24T00:05:18;14.47;;;6.70;;
50585;SDS011;36542;51.700;8.846;2023-05-24T00:07:44;20.33;;;5.97;;
50585;SDS011;36542;51.700;8.846;2023-05-24T00:10:10;20.70;;;6.60;;
50585;SDS011;36542;51.700;8.846;2023-05-24T00:12:35;25.77;;;6.63;;
50585;SDS011;36542;51.700;8.846;2023-05-24T00:15:01;18.77;;;6.30;;
50585;SDS011;36542;51.700;8.846;2023-05-24T00:17:27;14.47;;;5.73;;
50585;SDS011;36542;51.700;8.846;2023-05-24T00:19:54;21.37;;;5.93;;
50585;SDS011;36542;51.700;8.846;2023-05-24T00:22:19;24.73;;;6.67;;
50585;SDS011;36542;51.700;8.846;2023-05-24T00:24:46;15.63;;;6.47;;
50585;SDS011;36542;51.700;8.846;2023-05-24T00:27:12;19.00;;;6.50;;
50585;SDS011;36542;51.700;8.846;2023-05-24T00:29:38;30.70;;;7.00;;
50585;SDS011;36542;51.700;8.846;2023-05-24T00:32:04;16.93;;;6.20;;
50585;SDS011;36542;51.700;8.846;2023-05-24T00:34:30;27.97;;;8.30;;
50585;SDS011;36542;51.700;8.846;2023-05-24T00:36:55;25.33;;;7.17;;
50585;SDS011;36542;51.700;8.846;2023-05-24T00:39:21;16.97;;;6.90;;
50585;SDS011;36542;51.700;8.846;2023-05-24T00:41:47;22.43;;;6.70;;
50585;SDS011;36542;51.700;8.846;2023-05-24T00:44:13;26.37;;;7.07;;
50585;SDS011;36542;51.700;8.846;2023-05-24T00:46:38;26.37;;;7.70;;
50585;SDS011;36542;51.700;8.846;2023-05-24T00:49:05;19.63;;;8.03;;
50585;SDS011;36542;51.700;8.846;2023-05-24T00:51:31;24.33;;;7.13;;
50585;SDS011;36542;51.700;8.846;2023-05-24T00:53:57;17.73;;;7.00;;
50585;SDS011;36542;51.700;8.846;2023-05-24T00:56:24;23.83;;;7.53;;
50585;SDS011;36542;51.700;8.846;2023-05-24T00:58:50;24.50;;;7.73;;
50585;SDS011;36542;51.700;8.846;2023-05-24T01:01:19;20.87;;;7.97;;
50585;SDS011;36542;51.700;8.846;2023-05-24T01:03:49;14.33;;;6.73;;
50585;SDS011;36542;51.700;8.846;2023-05-24T01:06:16;19.13;;;7.27;;
50585;SDS011;36542;51.700;8.846;2023-05-24T01:11:25;19.77;;;6.77;;
50585;SDS011;36542;51.700;8.846;2023-05-24T01:19:47;29.27;;;6.70;;
50585;SDS011;36542;51.700;8.846;2023-05-24T01:22:23;25.57;;;7.20;;
50585;SDS011;36542;51.700;8.846;2023-05-24T01:28:12;21.23;;;7.50;;
50585;SDS011;36542;51.700;8.846;2023-05-24T01:30:39;18.90;;;6.90;;
50585;SDS011;36542;51.700;8.846;2023-05-24T01:33:05;23.17;;;8.47;;
50585;SDS011;36542;51.700;8.846;2023-05-24T01:35:30;21.33;;;7.77;;
50585;SDS011;36542;51.700;8.846;2023-05-24T01:37:58;27.80;;;9.60;;
50585;SDS011;36542;51.700;8.846;2023-05-24T01:40:23;30.60;;;8.87;;
50585;SDS011;36542;51.700;8.846;2023-05-24T01:43:02;24.63;;;8.47;;
50585;SDS011;36542;51.700;8.846;2023-05-24T01:45:34;18.97;;;8.77;;
50585;SDS011;36542;51.700;8.846;2023-05-24T01:48:08;29.57;;;7.90;;
50585;SDS011;36542;51.700;8.846;2023-05-24T01:50:52;19.40;;;6.97;;
50585;SDS011;36542;51.700;8.846;2023-05-24T01:53:22;24.33;;;7.40;;
50585;SDS011;36542;51.700;8.846;2023-05-24T01:55:50;24.60;;;8.43;;
50585;SDS011;36542;51.700;8.846;2023-05-24T01:58:19;31.37;;;8.77;;
50585;SDS011;36542;51.700;8.846;2023-05-24T02:00:46;26.03;;;7.93;;
50585;SDS011;36542;51.700;8.846;2023-05-24T02:03:13;31.07;;;8.73;;
50585;SDS011;36542;51.700;8.846;2023-05-24T02:05:39;28.53;;;9.13;;
50585;SDS011;36542;51.700;8.846;2023-05-24T02:08:05;25.13;;;7.13;;
50585;SDS011;36542;51.700;8.846;2023-05-24T02:10:30;24.07;;;7.67;;
50585;SDS011;36542;51.700;8.846;2023-05-24T02:12:56;25.53;;;7.67;;
50585;SDS011;36542;51.700;8.846;2023-05-24T02:15:23;29.83;;;8.03;;
50585;SDS011;36542;51.700;8.846;2023-05-24T02:17:50;20.43;;;7.63;;
50585;SDS011;36542;51.700;8.846;2023-05-24T02:20:18;25.13;;;7.37;;
50585;SDS011;36542;51.700;8.846;2023-05-24T02:22:46;23.87;;;9.10;;
50585;SDS011;36542;51.700;8.846;2023-05-24T02:25:12;25.07;;;8.27;;
50585;SDS011;36542;51.700;8.846;2023-05-24T02:27:37;32.80;;;8.87;;
50585;SDS011;36542;51.700;8.846;2023-05-24T02:30:04;28.60;;;7.80;;
50585;SDS011;36542;51.700;8.846;2023-05-24T02:32:30;24.60;;;9.50;;
50585;SDS011;36542;51.700;8.846;2023-05-24T02:34:56;25.07;;;8.70;;
50585;SDS011;36542;51.700;8.846;2023-05-24T02:37:23;25.77;;;8.53;;
50585;SDS011;36542;51.700;8.846;2023-05-24T02:39:49;25.00;;;8.70;;
50585;SDS011;36542;51.700;8.846;2023-05-24T02:42:14;26.60;;;8.50;;
50585;SDS011;36542;51.700;8.846;2023-05-24T02:44:40;30.80;;;8.93;;
50585;SDS011;36542;51.700;8.846;2023-05-24T02:47:06;20.43;;;8.77;;
50585;SDS011;36542;51.700;8.846;2023-05-24T02:49:32;26.83;;;8.07;;
50585;SDS011;36542;51.700;8.846;2023-05-24T02:51:57;26.87;;;8.00;;
50585;SDS011;36542;51.700;8.846;2023-05-24T02:54:23;18.00;;;7.73;;
50585;SDS011;36542;51.700;8.846;2023-05-24T02:56:49;23.70;;;8.60;;
50585;SDS011;36542;51.700;8.846;2023-05-24T02:59:15;34.17;;;9.23;;
50585;SDS011;36542;51.700;8.846;2023-05-24T03:01:41;19.17;;;8.03;;
50585;SDS011;36542;51.700;8.846;2023-05-24T03:04:06;27.23;;;9.30;;
50585;SDS011;36542;51.700;8.846;2023-05-24T03:06:32;27.03;;;8.40;;
50585;SDS011;36542;51.700;8.846;2023-05-24T03:08:57;16.77;;;8.00;;
50585;SDS011;36542;51.700;8.846;2023-05-24T03:11:23;25.13;;;8.73;;
50585;SDS011;36542;51.700;8.846;2023-05-24T03:13:50;28.67;;;8.50;;
50585;SDS011;36542;51.700;8.846;2023-05-24T03:16:15;20.90;;;8.80;;
50585;SDS011;36542;51.700;8.846;2023-05-24T03:18:41;25.20;;;9.27;;
50585;SDS011;36542;51.700;8.846;2023-05-24T03:21:06;27.57;;;8.77;;
50585;SDS011;36542;51.700;8.846;2023-05-24T03:23:32;25.53;;;7.90;;
50585;SDS011;36542;51.700;8.846;2023-05-24T03:25:57;28.67;;;8.63;;
50585;SDS011;36542;51.700;8.846;2023-05-24T03:28:23;24.47;;;8.37;;
50585;SDS011;36542;51.700;8.846;2023-05-24T03:30:48;31.30;;;9.10;;
50585;SDS011;36542;51.700;8.846;2023-05-24T03:33:14;27.77;;;9.30;;
50585;SDS011;36542;51.700;8.846;2023-05-24T03:35:39;28.77;;;8.33;;
50585;SDS011;36542;51.700;8.846;2023-05-24T03:38:05;21.00;;;8.17;;
50585;SDS011;36542;51.700;8.846;2023-05-24T03:40:30;25.00;;;8.00;;
50585;SDS011;36542;51.700;8.846;2023-05-24T03:42:57;25.03;;;7.90;;
50585;SDS011;36542;51.700;8.846;2023-05-24T03:45:23;19.90;;;7.47;;
50585;SDS011;36542;51.700;8.846;2023-05-24T03:47:48;23.93;;;8.20;;
50585;SDS011;36542;51.700;8.846;2023-05-24T03:50:14;19.27;;;6.93;;
50585;SDS011;36542;51.700;8.846;2023-05-24T03:52:40;22.17;;;7.13;;
50585;SDS011;36542;51.700;8.846;2023-05-24T03:55:06;18.40;;;6.90;;
50585;SDS011;36542;51.700;8.846;2023-05-24T03:57:32;23.43;;;7.77;;
50585;SDS011;36542;51.700;8.846;2023-05-24T03:59:57;24.70;;;8.63;;
50585;SDS011;36542;51.700;8.846;2023-05-24T04:02:24;19.07;;;7.93;;
50585;SDS011;36542;51.700;8.846;2023-05-24T04:04:50;22.67;;;7.47;;
50585;SDS011;36542;51.700;8.846;2023-05-24T04:07:15;21.73;;;7.23;;
50585;SDS011;36542;51.700;8.846;2023-05-24T04:09:41;18.20;;;7.30;;
50585;SDS011;36542;51.700;8.846;2023-05-24T04:12:07;25.60;;;7.80;;
50585;SDS011;36542;51.700;8.846;2023-05-24T04:14:32;24.67;;;7.57;;
50585;SDS011;36542;51.700;8.846;2023-05-24T04:16:59;21.63;;;7.93;;
50585;SDS011;36542;51.700;8.846;2023-05-24T04:19:26;22.47;;;6.47;;
50585;SDS011;36542;51.700;8.846;2023-05-24T04:21:51;23.33;;;7.33;;
50585;SDS011;36542;51.700;8.846;2023-05-24T04:24:17;19.97;;;6.70;;
50585;SDS011;36542;51.700;8.846;2023-05-24T04:26:42;17.23;;;7.77;;
50585;SDS011;36542;51.700;8.846;2023-05-24T04:29:08;21.03;;;7.53;;
50585;SDS011;36542;51.700;8.846;2023-05-24T04:31:34;17.70;;;6.53;;
50585;SDS011;36542;51.700;8.846;2023-05-24T04:33:59;20.57;;;7.90;;
50585;SDS011;36542;51.700;8.846;2023-05-24T04:36:26;18.13;;;6.87;;
50585;SDS011;36542;51.700;8.846;2023-05-24T04:38:52;20.93;;;7.10;;
50585;SDS011;36542;51.700;8.846;2023-05-24T04:41:20;25.30;;;6.60;;
50585;SDS011;36542;51.700;8.846;2023-05-24T04:43:46;26.17;;;7.60;;
50585;SDS011;36542;51.700;8.846;2023-05-24T04:46:11;23.33;;;7.57;;
50585;SDS011;36542;51.700;8.846;2023-05-24T04:48:37;20.40;;;7.23;;
50585;SDS011;36542;51.700;8.846;2023-05-24T04:51:02;19.07;;;7.00;;
50585;SDS011;36542;51.700;8.846;2023-05-24T04:53:28;19.93;;;7.70;;
50585;SDS011;36542;51.700;8.846;2023-05-24T04:55:54;25.27;;;8.23;;
50585;SDS011;36542;51.700;8.846;2023-05-24T04:58:20;21.23;;;7.07;;
50585;SDS011;36542;51.700;8.846;2023-05-24T05:00:45;23.93;;;8.23;;
50585;SDS011;36542;51.700;8.846;2023-05-24T05:03:11;23.87;;;8.10;;
50585;SDS011;36542;51.700;8.846;2023-05-24T05:05:36;26.67;;;7.80;;
50585;SDS011;36542;51.700;8.846;2023-05-24T05:08:02;20.87;;;7.27;;
50585;SDS011;36542;51.700;8.846;2023-05-24T05:10:28;21.23;;;6.40;;
50585;SDS011;36542;51.700;8.846;2023-05-24T05:12:54;20.40;;;6.73;;
50585;SDS011;36542;51.700;8.846;2023-05-24T05:15:20;24.87;;;7.73;;
50585;SDS011;36542;51.700;8.846;2023-05-24T05:17:47;21.07;;;6.90;;
50585;SDS011;36542;51.700;8.846;2023-05-24T05:20:12;17.73;;;6.57;;
50585;SDS011;36542;51.700;8.846;2023-05-24T05:22:38;18.47;;;5.97;;
50585;SDS011;36542;51.700;8.846;2023-05-24T05:25:03;17.17;;;5.97;;
50585;SDS011;36542;51.700;8.846;2023-05-24T05:27:29;21.70;;;6.33;;
50585;SDS011;36542;51.700;8.846;2023-05-24T05:29:55;24.07;;;7.20;;
50585;SDS011;36542;51.700;8.846;2023-05-24T05:32:20;19.70;;;7.37;;
50585;SDS011;36542;51.700;8.846;2023-05-24T05:34:46;22.37;;;7.60;;
50585;SDS011;36542;51.700;8.846;2023-05-24T05:37:11;21.90;;;7.90;;
50585;SDS011;36542;51.700;8.846;2023-05-24T05:39:37;18.37;;;7.27;;
50585;SDS011;36542;51.700;8.846;2023-05-24T05:42:02;24.60;;;7.90;;
50585;SDS011;36542;51.700;8.846;2023-05-24T05:44:28;22.27;;;8.70;;
50585;SDS011;36542;51.700;8.846;2023-05-24T05:46:53;23.87;;;7.40;;
50585;SDS011;36542;51.700;8.846;2023-05-24T05:49:19;22.97;;;7.43;;
50585;SDS011;36542;51.700;8.846;2023-05-24T05:51:45;29.80;;;8.33;;
50585;SDS011;36542;51.700;8.846;2023-05-24T05:54:11;28.70;;;9.07;;
50585;SDS011;36542;51.700;8.846;2023-05-24T05:56:42;29.77;;;8.87;;
50585;SDS011;36542;51.700;8.846;2023-05-24T05:59:12;28.70;;;8.33;;
50585;SDS011;36542;51.700;8.846;2023-05-24T06:01:41;28.43;;;9.80;;
50585;SDS011;36542;51.700;8.846;2023-05-24T06:04:07;26.57;;;8.57;;
50585;SDS011;36542;51.700;8.846;2023-05-24T06:06:33;24.90;;;8.63;;
50585;SDS011;36542;51.700;8.846;2023-05-24T06:08:58;25.97;;;8.67;;
50585;SDS011;36542;51.700;8.846;2023-05-24T06:11:24;18.50;;;7.77;;
50585;SDS011;36542;51.700;8.846;2023-05-24T06:13:50;24.63;;;8.43;;
50585;SDS011;36542;51.700;8.846;2023-05-24T06:16:16;28.77;;;9.23;;
50585;SDS011;36542;51.700;8.846;2023-05-24T06:18:42;27.73;;;8.13;;
50585;SDS011;36542;51.700;8.846;2023-05-24T06:21:07;23.50;;;8.90;;
50585;SDS011;36542;51.700;8.846;2023-05-24T06:23:34;32.57;;;9.30;;
50585;SDS011;36542;51.700;8.846;2023-05-24T06:26:01;25.17;;;9.10;;
50585;SDS011;36542;51.700;8.846;2023-05-24T06:28:27;26.20;;;10.33;;
50585;SDS011;36542;51.700;8.846;2023-05-24T06:30:53;26.60;;;11.07;;
50585;SDS011;36542;51.700;8.846;2023-05-24T06:33:18;31.53;;;10.13;;
50585;SDS011;36542;51.700;8.846;2023-05-24T06:35:44;24.30;;;10.37;;
50585;SDS011;36542;51.700;8.846;2023-05-24T06:38:09;30.13;;;10.27;;
50585;SDS011;36542;51.700;8.846;2023-05-24T06:40:35;32.47;;;9.93;;
50585;SDS011;36542;51.700;8.846;2023-05-24T06:43:00;21.17;;;10.17;;
50585;SDS011;36542;51.700;8.846;2023-05-24T06:45:26;24.40;;;9.33;;
50585;SDS011;36542;51.700;8.846;2023-05-24T06:47:51;28.10;;;8.80;;
50585;SDS011;36542;51.700;8.846;2023-05-24T06:50:17;19.47;;;8.77;;
50585;SDS011;36542;51.700;8.846;2023-05-24T06:52:42;19.77;;;8.37;;
50585;SDS011;36542;51.700;8.846;2023-05-24T06:55:08;33.53;;;9.10;;
50585;SDS011;36542;51.700;8.846;2023-05-24T06:57:34;29.63;;;8.97;;
50585;SDS011;36542;51.700;8.846;2023-05-24T06:59:59;26.07;;;9.60;;
50585;SDS011;36542;51.700;8.846;2023-05-24T07:02:25;31.37;;;9.90;;
50585;SDS011;36542;51.700;8.846;2023-05-24T07:04:52;25.07;;;9.87;;
50585;SDS011;36542;51.700;8.846;2023-05-24T07:07:18;28.30;;;10.23;;
50585;SDS011;36542;51.700;8.846;2023-05-24T07:09:44;33.40;;;10.87;;
50585;SDS011;36542;51.700;8.846;2023-05-24T07:12:11;21.60;;;10.27;;
50585;SDS011;36542;51.700;8.846;2023-05-24T07:14:36;21.07;;;10.50;;
50585;SDS011;36542;51.700;8.846;2023-05-24T07:17:02;30.10;;;10.83;;
50585;SDS011;36542;51.700;8.846;2023-05-24T07:19:28;17.97;;;9.53;;
50585;SDS011;36542;51.700;8.846;2023-05-24T07:21:57;30.90;;;10.67;;
50585;SDS011;36542;51.700;8.846;2023-05-24T07:24:22;32.07;;;10.93;;
50585;SDS011;36542;51.700;8.846;2023-05-24T07:26:48;26.97;;;9.60;;
50585;SDS011;36542;51.700;8.846;2023-05-24T07:29:15;24.03;;;10.60;;
50585;SDS011;36542;51.700;8.846;2023-05-24T07:31:41;26.57;;;11.03;;
50585;SDS011;36542;51.700;8.846;2023-05-24T07:34:07;30.27;;;12.17;;
50585;SDS011;36542;51.700;8.846;2023-05-24T07:36:32;27.00;;;10.07;;
50585;SDS011;36542;51.700;8.846;2023-05-24T07:38:58;25.30;;;10.47;;
50585;SDS011;36542;51.700;8.846;2023-05-24T07:41:25;24.50;;;9.37;;
50585;SDS011;36542;51.700;8.846;2023-05-24T07:43:52;24.70;;;10.33;;
50585;SDS011;36542;51.700;8.846;2023-05-24T07:46:18;31.80;;;11.00;;
50585;SDS011;36542;51.700;8.846;2023-05-24T07:48:44;25.43;;;9.93;;
50585;SDS011;36542;51.700;8.846;2023-05-24T07:51:10;24.87;;;9.97;;
50585;SDS011;36542;51.700;8.846;2023-05-24T07:53:36;34.20;;;10.87;;
50585;SDS011;36542;51.700;8.846;2023-05-24T07:56:01;24.13;;;9.97;;
50585;SDS011;36542;51.700;8.846;2023-05-24T07:58:27;26.70;;;8.37;;
50585;SDS011;36542;51.700;8.846;2023-05-24T08:00:53;27.40;;;9.10;;
50585;SDS011;36542;51.700;8.846;2023-05-24T08:03:18;23.23;;;9.60;;
50585;SDS011;36542;51.700;8.846;2023-05-24T08:05:44;20.60;;;8.90;;
50585;SDS011;36542;51.700;8.846;2023-05-24T08:08:10;22.30;;;9.37;;
50585;SDS011;36542;51.700;8.846;2023-05-24T08:10:35;26.40;;;9.80;;
50585;SDS011;36542;51.700;8.846;2023-05-24T08:13:01;27.50;;;8.53;;
50585;SDS011;36542;51.700;8.846;2023-05-24T08:15:27;19.30;;;7.83;;
50585;SDS011;36542;51.700;8.846;2023-05-24T08:17:53;20.80;;;8.20;;
50585;SDS011;36542;51.700;8.846;2023-05-24T08:20:18;21.70;;;8.07;;
50585;SDS011;36542;51.700;8.846;2023-05-24T08:22:44;20.67;;;7.63;;
50585;SDS011;36542;51.700;8.846;2023-05-24T08:25:12;21.57;;;7.80;;
50585;SDS011;36542;51.700;8.846;2023-05-24T08:27:37;24.17;;;8.67;;
50585;SDS011;36542;51.700;8.846;2023-05-24T08:30:03;24.50;;;8.13;;
50585;SDS011;36542;51.700;8.846;2023-05-24T08:32:30;22.97;;;8.07;;
50585;SDS011;36542;51.700;8.846;2023-05-24T08:34:56;18.43;;;8.07;;
50585;SDS011;36542;51.700;8.846;2023-05-24T08:37:21;27.03;;;8.23;;
50585;SDS011;36542;51.700;8.846;2023-05-24T08:39:47;24.13;;;8.23;;
50585;SDS011;36542;51.700;8.846;2023-05-24T08:42:13;21.43;;;8.60;;
50585;SDS011;36542;51.700;8.846;2023-05-24T08:44:46;22.43;;;8.27;;
50585;SDS011;36542;51.700;8.846;2023-05-24T08:47:16;21.47;;;6.83;;
50585;SDS011;36542;51.700;8.846;2023-05-24T08:49:49;26.10;;;7.20;;
50585;SDS011;36542;51.700;8.846;2023-05-24T08:52:16;18.73;;;6.43;;
50585;SDS011;36542;51.700;8.846;2023-05-24T08:54:44;16.70;;;6.73;;
50585;SDS011;36542;51.700;8.846;2023-05-24T08:57:12;22.30;;;7.50;;
50585;SDS011;36542;51.700;8.846;2023-05-24T08:59:39;17.27;;;6.70;;
50585;SDS011;36542;51.700;8.846;2023-05-24T09:02:05;24.70;;;7.83;;
50585;SDS011;36542;51.700;8.846;2023-05-24T09:04:35;23.77;;;6.97;;
50585;SDS011;36542;51.700;8.846;2023-05-24T09:07:03;20.27;;;6.43;;
50585;SDS011;36542;51.700;8.846;2023-05-24T09:09:29;22.23;;;6.80;;
50585;SDS011;36542;51.700;8.846;2023-05-24T09:11:58;20.83;;;7.97;;
50585;SDS011;36542;51.700;8.846;2023-05-24T09:14:28;20.40;;;7.87;;
50585;SDS011;36542;51.700;8.846;2023-05-24T09:16:53;25.60;;;8.50;;
50585;SDS011;36542;51.700;8.846;2023-05-24T09:19:19;20.70;;;7.10;;
50585;SDS011;36542;51.700;8.846;2023-05-24T09:21:45;22.13;;;7.77;;
50585;SDS011;36542;51.700;8.846;2023-05-24T09:24:11;24.37;;;7.73;;
50585;SDS011;36542;51.700;8.846;2023-05-24T09:26:37;21.37;;;7.20;;
50585;SDS011;36542;51.700;8.846;2023-05-24T09:29:06;22.67;;;7.13;;
50585;SDS011;36542;51.700;8.846;2023-05-24T09:31:33;18.03;;;7.83;;
50585;SDS011;36542;51.700;8.846;2023-05-24T09:33:59;27.67;;;8.40;;
50585;SDS011;36542;51.700;8.846;2023-05-24T09:36:25;22.13;;;8.27;;
50585;SDS011;36542;51.700;8.846;2023-05-24T09:39:06;22.33;;;8.10;;
50585;SDS011;36542;51.700;8.846;2023-05-24T09:41:34;25.27;;;8.50;;
50585;SDS011;36542;51.700;8.846;2023-05-24T09:44:01;16.67;;;7.40;;
50585;SDS011;36542;51.700;8.846;2023-05-24T09:46:27;20.47;;;8.70;;
50585;SDS011;36542;51.700;8.846;2023-05-24T09:48:59;24.30;;;8.13;;
50585;SDS011;36542;51.700;8.846;2023-05-24T09:51:27;18.77;;;7.57;;
50585;SDS011;36542;51.700;8.846;2023-05-24T09:53:56;20.03;;;7.77;;
50585;SDS011;36542;51.700;8.846;2023-05-24T09:56:25;23.50;;;8.10;;
50585;SDS011;36542;51.700;8.846;2023-05-24T09:58:51;19.70;;;7.47;;
50585;SDS011;36542;51.700;8.846;2023-05-24T10:01:18;26.30;;;8.07;;
50585;SDS011;36542;51.700;8.846;2023-05-24T10:03:54;21.13;;;6.97;;
50585;SDS011;36542;51.700;8.846;2023-05-24T10:06:20;17.90;;;7.20;;
50585;SDS011;36542;51.700;8.846;2023-05-24T10:08:47;21.53;;;7.17;;
50585;SDS011;36542;51.700;8.846;2023-05-24T10:11:14;27.53;;;7.13;;
50585;SDS011;36542;51.700;8.846;2023-05-24T10:13:40;23.27;;;7.77;;
50585;SDS011;36542;51.700;8.846;2023-05-24T10:16:06;15.97;;;6.50;;
50585;SDS011;36542;51.700;8.846;2023-05-24T10:18:32;24.03;;;7.60;;
50585;SDS011;36542;51.700;8.846;2023-05-24T10:20:58;23.40;;;7.17;;
50585;SDS011;36542;51.700;8.846;2023-05-24T10:23:25;24.53;;;7.33;;
50585;SDS011;36542;51.700;8.846;2023-05-24T10:25:55;21.00;;;6.87;;
50585;SDS011;36542;51.700;8.846;2023-05-24T10:28:27;25.10;;;6.47;;
50585;SDS011;36542;51.700;8.846;2023-05-24T10:33:23;18.27;;;6.87;;
50585;SDS011;36542;51.700;8.846;2023-05-24T10:35:50;18.53;;;6.30;;
50585;SDS011;36542;51.700;8.846;2023-05-24T10:38:17;19.40;;;6.97;;
50585;SDS011;36542;51.700;8.846;2023-05-24T10:40:46;20.27;;;6.63;;
50585;SDS011;36542;51.700;8.846;2023-05-24T10:43:11;25.53;;;7.33;;
50585;SDS011;36542;51.700;8.846;2023-05-24T10:45:40;19.63;;;7.00;;
50585;SDS011;36542;51.700;8.846;2023-05-24T10:50:37;17.77;;;6.23;;
50585;SDS011;36542;51.700;8.846;2023-05-24T10:53:10;22.20;;;6.93;;
50585;SDS011;36542;51.700;8.846;2023-05-24T10:55:44;18.03;;;7.33;;
50585;SDS011;36542;51.700;8.846;2023-05-24T10:58:15;16.37;;;6.70;;
50585;SDS011;36542;51.700;8.846;2023-05-24T11:00:44;18.63;;;7.73;;
50585;SDS011;36542;51.700;8.846;2023-05-24T11:03:10;18.47;;;6.67;;
50585;SDS011;36542;51.700;8.846;2023-05-24T11:08:20;24.17;;;7.03;;
50585;SDS011;36542;51.700;8.846;2023-05-24T11:10:48;16.53;;;6.43;;
50585;SDS011;36542;51.700;8.846;2023-05-24T11:13:14;23.93;;;7.47;;
50585;SDS011;36542;51.700;8.846;2023-05-24T11:15:49;20.33;;;7.43;;
50585;SDS011;36542;51.700;8.846;2023-05-24T11:18:15;15.57;;;7.43;;
50585;SDS011;36542;51.700;8.846;2023-05-24T11:20:41;20.23;;;7.60;;
50585;SDS011;36542;51.700;8.846;2023-05-24T11:23:09;21.43;;;6.77;;
50585;SDS011;36542;51.700;8.846;2023-05-24T11:25:35;19.07;;;6.53;;
50585;SDS011;36542;51.700;8.846;2023-05-24T11:28:01;24.73;;;7.57;;
50585;SDS011;36542;51.700;8.846;2023-05-24T11:30:28;19.30;;;6.47;;
50585;SDS011;36542;51.700;8.846;2023-05-24T11:32:59;18.53;;;6.27;;
50585;SDS011;36542;51.700;8.846;2023-05-24T11:35:27;19.50;;;6.20;;
50585;SDS011;36542;51.700;8.846;2023-05-24T11:37:53;18.17;;;6.53;;
50585;SDS011;36542;51.700;8.846;2023-05-24T11:40:21;22.27;;;7.57;;
50585;SDS011;36542;51.700;8.846;2023-05-24T11:42:47;17.73;;;6.47;;
50585;SDS011;36542;51.700;8.846;2023-05-24T11:45:14;15.37;;;6.67;;
50585;SDS011;36542;51.700;8.846;2023-05-24T11:47:43;18.60;;;6.43;;
50585;SDS011;36542;51.700;8.846;2023-05-24T11:50:08;17.17;;;6.77;;
50585;SDS011;36542;51.700;8.846;2023-05-24T11:52:38;16.40;;;6.53;;
50585;SDS011;36542;51.700;8.846;2023-05-24T11:55:05;12.47;;;5.83;;
50585;SDS011;36542;51.700;8.846;2023-05-24T11:57:37;17.13;;;7.10;;
50585;SDS011;36542;51.700;8.846;2023-05-24T12:00:10;13.97;;;6.10;;
50585;SDS011;36542;51.700;8.846;2023-05-24T12:02:41;18.40;;;7.57;;
50585;SDS011;36542;51.700;8.846;2023-05-24T12:05:07;15.37;;;6.67;;
50585;SDS011;36542;51.700;8.846;2023-05-24T12:07:35;16.97;;;6.37;;
50585;SDS011;36542;51.700;8.846;2023-05-24T12:10:01;23.90;;;6.73;;
50585;SDS011;36542;51.700;8.846;2023-05-24T12:12:28;11.37;;;5.40;;
50585;SDS011;36542;51.700;8.846;2023-05-24T12:14:54;17.53;;;5.97;;
50585;SDS011;36542;51.700;8.846;2023-05-24T12:17:20;16.67;;;5.40;;
50585;SDS011;36542;51.700;8.846;2023-05-24T12:19:47;13.87;;;6.37;;
50585;SDS011;36542;51.700;8.846;2023-05-24T12:22:14;15.90;;;5.53;;
50585;SDS011;36542;51.700;8.846;2023-05-24T12:24:39;15.47;;;7.40;;
50585;SDS011;36542;51.700;8.846;2023-05-24T12:27:06;19.70;;;6.47;;
50585;SDS011;36542;51.700;8.846;2023-05-24T12:29:36;17.17;;;6.20;;
50585;SDS011;36542;51.700;8.846;2023-05-24T12:32:04;18.80;;;6.00;;
50585;SDS011;36542;51.700;8.846;2023-05-24T12:34:30;15.97;;;6.07;;
50585;SDS011;36542;51.700;8.846;2023-05-24T12:36:56;16.67;;;6.27;;
50585;SDS011;36542;51.700;8.846;2023-05-24T12:39:23;12.13;;;5.70;;
50585;SDS011;36542;51.700;8.846;2023-05-24T12:41:56;11.00;;;4.63;;
50585;SDS011;36542;51.700;8.846;2023-05-24T12:44:25;21.80;;;5.37;;
50585;SDS011;36542;51.700;8.846;2023-05-24T12:46:53;14.80;;;5.90;;
50585;SDS011;36542;51.700;8.846;2023-05-24T12:49:20;14.37;;;5.13;;
50585;SDS011;36542;51.700;8.846;2023-05-24T12:51:45;17.13;;;5.77;;
50585;SDS011;36542;51.700;8.846;2023-05-24T12:54:11;16.23;;;5.63;;
50585;SDS011;36542;51.700;8.846;2023-05-24T12:56:37;15.60;;;6.27;;
50585;SDS011;36542;51.700;8.846;2023-05-24T12:59:02;12.63;;;5.27;;
50585;SDS011;36542;51.700;8.846;2023-05-24T13:01:28;18.40;;;6.10;;
50585;SDS011;36542;51.700;8.846;2023-05-24T13:03:54;14.13;;;5.50;;
50585;SDS011;36542;51.700;8.846;2023-05-24T13:06:20;16.43;;;5.80;;
50585;SDS011;36542;51.700;8.846;2023-05-24T13:08:46;16.83;;;6.10;;
50585;SDS011;36542;51.700;8.846;2023-05-24T13:11:12;20.80;;;5.33;;
50585;SDS011;36542;51.700;8.846;2023-05-24T13:13:37;15.17;;;5.07;;
50585;SDS011;36542;51.700;8.846;2023-05-24T13:16:03;13.63;;;5.73;;
50585;SDS011;36542;51.700;8.846;2023-05-24T13:18:32;13.30;;;5.17;;
50585;SDS011;36542;51.700;8.846;2023-05-24T13:20:58;12.87;;;5.60;;
50585;SDS011;36542;51.700;8.846;2023-05-24T13:23:25;11.30;;;4.93;;
50585;SDS011;36542;51.700;8.846;2023-05-24T13:25:51;12.50;;;5.10;;
50585;SDS011;36542;51.700;8.846;2023-05-24T13:28:17;12.17;;;4.83;;
50585;SDS011;36542;51.700;8.846;2023-05-24T13:30:43;11.83;;;5.07;;
50585;SDS011;36542;51.700;8.846;2023-05-24T13:33:10;15.53;;;5.27;;
50585;SDS011;36542;51.700;8.846;2023-05-24T13:35:36;13.70;;;5.37;;
50585;SDS011;36542;51.700;8.846;2023-05-24T13:38:01;12.77;;;5.10;;
50585;SDS011;36542;51.700;8.846;2023-05-24T13:40:26;11.07;;;5.33;;
50585;SDS011;36542;51.700;8.846;2023-05-24T13:42:53;10.50;;;5.07;;
50585;SDS011;36542;51.700;8.846;2023-05-24T13:45:20;13.40;;;5.63;;
50585;SDS011;36542;51.700;8.846;2023-05-24T13:47:46;11.73;;;5.30;;
50585;SDS011;36542;51.700;8.846;2023-05-24T13:50:12;12.27;;;5.30;;
50585;SDS011;36542;51.700;8.846;2023-05-24T13:52:37;12.13;;;4.93;;
50585;SDS011;36542;51.700;8.846;2023-05-24T13:55:03;16.50;;;5.63;;
50585;SDS011;36542;51.700;8.846;2023-05-24T13:57:29;14.50;;;5.10;;
50585;SDS011;36542;51.700;8.846;2023-05-24T13:59:56;14.67;;;5.70;;
50585;SDS011;36542;51.700;8.846;2023-05-24T14:02:22;16.20;;;6.43;;
50585;SDS011;36542;51.700;8.846;2023-05-24T14:04:48;16.93;;;5.70;;
50585;SDS011;36542;51.700;8.846;2023-05-24T14:07:13;14.67;;;6.27;;
50585;SDS011;36542;51.700;8.846;2023-05-24T14:09:39;12.20;;;5.97;;
50585;SDS011;36542;51.700;8.846;2023-05-24T14:12:05;18.20;;;6.70;;
50585;SDS011;36542;51.700;8.846;2023-05-24T14:14:32;14.03;;;6.00;;
50585;SDS011;36542;51.700;8.846;2023-05-24T14:16:58;22.53;;;7.13;;
50585;SDS011;36542;51.700;8.846;2023-05-24T14:19:23;16.17;;;6.67;;
50585;SDS011;36542;51.700;8.846;2023-05-24T14:21:49;16.57;;;6.70;;
50585;SDS011;36542;51.700;8.846;2023-05-24T14:24:14;22.47;;;8.00;;
50585;SDS011;36542;51.700;8.846;2023-05-24T14:26:40;13.37;;;7.13;;
50585;SDS011;36542;51.700;8.846;2023-05-24T14:29:06;16.27;;;7.50;;
50585;SDS011;36542;51.700;8.846;2023-05-24T14:31:32;15.57;;;7.10;;
50585;SDS011;36542;51.700;8.846;2023-05-24T14:33:59;19.20;;;8.23;;
50585;SDS011;36542;51.700;8.846;2023-05-24T14:36:25;12.87;;;7.03;;
50585;SDS011;36542;51.700;8.846;2023-05-24T14:38:50;20.43;;;7.97;;
50585;SDS011;36542;51.700;8.846;2023-05-24T14:41:16;17.27;;;7.40;;
50585;SDS011;36542;51.700;8.846;2023-05-24T14:43:42;16.73;;;7.40;;
50585;SDS011;36542;51.700;8.846;2023-05-24T14:46:07;21.30;;;7.97;;
50585;SDS011;36542;51.700;8.846;2023-05-24T14:48:33;14.27;;;7.00;;